createdAt,value
2019-05-18T00:00:54.119Z,98188.84
2019-05-18T00:03:02.014Z,98183.80
2019-05-18T00:05:10.344Z,98185.43
2019-05-18T00:07:18.136Z,98181.11
2019-05-18T00:09:26.035Z,98186.48
2019-05-18T00:11:34.325Z,98187.46
2019-05-18T00:13:42.279Z,98189.47
2019-05-18T00:15:51.308Z,98187.27
2019-05-18T00:17:59.231Z,98184.11
2019-05-18T00:20:11.105Z,98193.02
2019-05-18T00:22:18.986Z,98187.41
2019-05-18T00:24:26.903Z,98186.92
2019-05-18T00:26:34.789Z,98185.17
2019-05-18T00:28:43.814Z,98190.66
2019-05-18T00:30:52.046Z,98187.41
2019-05-18T00:32:59.985Z,98185.52
2019-05-18T00:35:09.705Z,98180.91
2019-05-18T00:37:19.074Z,98172.36
2019-05-18T00:39:27.137Z,98172.44
2019-05-18T00:41:36.128Z,98167.06
2019-05-18T00:43:44.038Z,98161.83
2019-05-18T00:45:52.027Z,98157.11
2019-05-18T00:48:00.559Z,98153.02
2019-05-18T00:50:09.076Z,98147.30
2019-05-18T00:52:16.931Z,98150.33
2019-05-18T00:54:24.821Z,98143.69
2019-05-18T00:56:32.744Z,98147.44
2019-05-18T00:58:40.702Z,98139.17
2019-05-18T01:00:48.591Z,98137.06
2019-05-18T01:02:57.022Z,98138.94
2019-05-18T01:05:06.233Z,98132.96
2019-05-18T01:07:14.092Z,98128.86
2019-05-18T01:09:22.033Z,98123.72
2019-05-18T01:11:30.087Z,98128.06
2019-05-18T01:13:38.108Z,98131.93
2019-05-18T01:15:46.028Z,98135.42
2019-05-18T01:17:57.394Z,98135.67
2019-05-18T01:20:03.742Z,98137.30
2019-05-18T01:22:12.699Z,98142.83
2019-05-18T01:24:20.686Z,98145.03
2019-05-18T01:26:28.572Z,98149.13
2019-05-18T01:28:36.603Z,98144.55
2019-05-18T01:30:46.375Z,98144.20
2019-05-18T01:32:54.365Z,98150.47
2019-05-18T01:35:02.307Z,98148.36
2019-05-18T01:37:10.327Z,98153.83
2019-05-18T01:39:18.344Z,98144.10
2019-05-18T01:41:26.378Z,98145.50
2019-05-18T01:43:34.270Z,98147.96
2019-05-18T01:45:42.159Z,98150.45
2019-05-18T01:47:50.085Z,98136.18
2019-05-18T01:49:58.084Z,98131.83
2019-05-18T01:52:06.066Z,98129.37
2019-05-18T01:54:15.666Z,98124.91
2019-05-18T01:56:23.883Z,98121.16
2019-05-18T01:58:33.877Z,98125.59
2019-05-18T02:00:41.821Z,98125.97
2019-05-18T02:02:51.338Z,98121.86
2019-05-18T02:04:59.237Z,98114.97
2019-05-18T02:07:07.228Z,98120.69
2019-05-18T02:09:15.162Z,98113.91
2019-05-18T02:11:23.224Z,98113.34
2019-05-18T02:13:31.212Z,98112.73
2019-05-18T02:15:39.104Z,98112.25
2019-05-18T02:17:47.062Z,98112.50
2019-05-18T02:19:54.996Z,98109.47
2019-05-18T02:22:02.955Z,98101.38
2019-05-18T02:24:10.980Z,98109.70
2019-05-18T02:26:18.945Z,98100.81
2019-05-18T02:28:28.241Z,98093.66
2019-05-18T02:30:36.474Z,98097.89
2019-05-18T02:32:44.412Z,98105.02
2019-05-18T02:34:52.302Z,98104.32
2019-05-18T02:37:00.263Z,98098.45
2019-05-18T02:39:09.592Z,98097.55
2019-05-18T02:41:18.043Z,98101.75
2019-05-18T02:43:25.929Z,98104.20
2019-05-18T02:45:34.908Z,98109.72
2019-05-18T02:47:42.806Z,98105.75
2019-05-18T02:49:50.705Z,98104.58
2019-05-18T02:51:58.714Z,98109.84
2019-05-18T02:54:06.661Z,98106.09
2019-05-18T02:56:14.558Z,98110.30
2019-05-18T02:58:22.475Z,98114.04
2019-05-18T03:00:31.268Z,98116.98
2019-05-18T03:02:39.160Z,98116.98
2019-05-18T03:04:47.231Z,98110.89
2019-05-18T03:06:56.020Z,98106.92
2019-05-18T03:09:05.755Z,98118.50
2019-05-18T03:11:13.645Z,98120.95
2019-05-18T03:13:22.033Z,98114.06
2019-05-18T03:15:30.160Z,98111.95
2019-05-18T03:17:38.202Z,98118.64
2019-05-18T03:19:46.157Z,98123.41
2019-05-18T03:21:54.143Z,98123.41
2019-05-18T03:24:02.142Z,98124.70
2019-05-18T03:26:10.030Z,98124.94
2019-05-18T03:28:17.927Z,98124.02
2019-05-18T03:30:25.909Z,98130.22
2019-05-18T03:32:33.817Z,98138.06
2019-05-18T03:34:41.706Z,98137.06
2019-05-18T03:36:49.642Z,98134.13
2019-05-18T03:38:58.006Z,98136.50
2019-05-18T03:41:06.076Z,98136.02
2019-05-18T03:43:13.990Z,98138.59
2019-05-18T03:45:21.957Z,98135.22
2019-05-18T03:47:29.913Z,98135.22
2019-05-18T03:49:37.924Z,98128.19
2019-05-18T03:51:45.989Z,98136.83
2019-05-18T03:53:54.083Z,98130.62
2019-05-18T03:56:02.200Z,98135.77
2019-05-18T03:58:10.183Z,98130.96
2019-05-18T04:00:19.653Z,98135.31
2019-05-18T04:02:28.194Z,98130.05
2019-05-18T04:04:36.081Z,98131.44
2019-05-18T04:06:43.972Z,98122.56
2019-05-18T04:08:51.994Z,98118.84
2019-05-18T04:10:59.945Z,98128.09
2019-05-18T04:13:08.894Z,98128.70
2019-05-18T04:15:17.053Z,98129.06
2019-05-18T04:17:25.048Z,98116.90
2019-05-18T04:19:45.810Z,98121.70
2019-05-18T04:21:43.823Z,98119.11
2019-05-18T04:23:51.712Z,98115.84
2019-05-18T04:25:59.602Z,98110.31
2019-05-18T04:28:07.620Z,98105.86
2019-05-18T04:30:15.961Z,98109.02
2019-05-18T04:32:23.917Z,98107.27
2019-05-18T04:34:31.833Z,98104.19
2019-05-18T04:36:39.785Z,98100.05
2019-05-18T04:38:47.588Z,98105.55
2019-05-18T04:40:55.511Z,98107.19
2019-05-18T04:43:03.406Z,98102.73
2019-05-18T04:45:11.530Z,98099.62
2019-05-18T04:47:19.571Z,98100.77
2019-05-18T04:49:27.655Z,98103.34
2019-05-18T04:51:35.646Z,98105.53
2019-05-18T04:53:43.577Z,98099.06
2019-05-18T04:55:51.471Z,98100.22
2019-05-18T04:58:00.834Z,98097.05
2019-05-18T05:00:10.288Z,98091.16
2019-05-18T05:02:18.572Z,98097.44
2019-05-18T05:04:27.267Z,98092.48
2019-05-18T05:06:35.688Z,98093.15
2019-05-18T05:08:44.156Z,98088.68
2019-05-18T05:10:52.547Z,98079.27
2019-05-18T05:13:01.515Z,98086.30
2019-05-18T05:15:10.155Z,98088.16
2019-05-18T05:17:18.534Z,98087.09
2019-05-18T05:19:26.452Z,98089.19
2019-05-18T05:21:36.350Z,98089.75
2019-05-18T05:23:44.615Z,98090.31
2019-05-18T05:25:52.937Z,98088.59
2019-05-18T05:28:01.396Z,98083.58
2019-05-18T05:30:10.197Z,98075.05
2019-05-18T05:32:18.197Z,98071.08
2019-05-18T05:34:26.102Z,98060.89
2019-05-18T05:36:34.376Z,98065.74
2019-05-18T05:38:42.490Z,98056.78
2019-05-18T05:40:50.954Z,98054.74
2019-05-18T05:42:58.967Z,98047.53
2019-05-18T05:45:07.875Z,98051.50
2019-05-18T05:47:16.031Z,98046.41
2019-05-18T05:49:23.924Z,98050.09
2019-05-18T05:51:31.935Z,98056.52
2019-05-18T05:53:39.927Z,98058.55
2019-05-18T05:55:47.825Z,98060.47
2019-05-18T05:57:55.954Z,98064.63
2019-05-18T06:00:06.234Z,98059.72
2019-05-18T06:02:14.526Z,98056.31
2019-05-18T06:04:22.442Z,98047.23
2019-05-18T06:06:31.398Z,98054.32
2019-05-18T06:08:39.793Z,98063.18
2019-05-18T06:10:48.429Z,98065.30
2019-05-18T06:12:56.844Z,98052.17
2019-05-18T06:15:07.153Z,98061.70
2019-05-18T06:17:15.580Z,98058.96
2019-05-18T06:19:23.910Z,98056.00
2019-05-18T06:21:32.789Z,98064.55
2019-05-18T06:23:41.212Z,98061.73
2019-05-18T06:25:49.603Z,98062.95
2019-05-18T06:27:57.897Z,98061.97
2019-05-18T06:30:08.441Z,98070.28
2019-05-18T06:32:16.335Z,98063.25
2019-05-18T06:34:24.398Z,98060.20
2019-05-18T06:36:32.617Z,98069.41
2019-05-18T06:38:41.542Z,98060.91
2019-05-18T06:40:49.478Z,98069.28
2019-05-18T06:42:57.798Z,98060.28
2019-05-18T06:45:10.138Z,98073.19
2019-05-18T06:47:18.088Z,98067.80
2019-05-18T06:49:26.100Z,98075.70
2019-05-18T06:51:33.976Z,98078.38
2019-05-18T06:53:42.354Z,98074.05
2019-05-18T06:55:52.103Z,98070.39
2019-05-18T06:58:01.099Z,98069.22
2019-05-18T07:00:11.426Z,98069.83
2019-05-18T07:02:19.326Z,98064.47
2019-05-18T07:04:27.275Z,98063.38
2019-05-18T07:06:36.308Z,98071.73
2019-05-18T07:08:44.695Z,98069.29
2019-05-18T07:10:53.558Z,98070.84
2019-05-18T07:13:01.956Z,98071.86
2019-05-18T07:15:10.758Z,98074.66
2019-05-18T07:17:19.081Z,98080.25
2019-05-18T07:19:27.237Z,98076.03
2019-05-18T07:21:35.547Z,98075.78
2019-05-18T07:23:44.007Z,98076.80
2019-05-18T07:25:52.438Z,98074.52
2019-05-18T07:28:00.546Z,98076.03
2019-05-18T07:30:21.697Z,98083.23
2019-05-18T07:32:29.981Z,98088.81
2019-05-18T07:34:37.990Z,98083.77
2019-05-18T07:36:47.432Z,98078.88
2019-05-18T07:38:55.410Z,98083.13
2019-05-18T07:41:03.626Z,98081.19
2019-05-18T07:43:12.011Z,98079.75
2019-05-18T07:45:20.781Z,98076.03
2019-05-18T07:47:28.938Z,98080.11
2019-05-18T07:49:36.918Z,98082.71
2019-05-18T07:51:44.806Z,98079.81
2019-05-18T07:53:52.710Z,98082.09
2019-05-18T07:56:00.752Z,98076.77
2019-05-18T07:58:09.352Z,98085.67
2019-05-18T08:00:17.596Z,98083.12
2019-05-18T08:02:25.484Z,98084.89
2019-05-18T08:04:33.535Z,98081.98
2019-05-18T08:06:41.461Z,98084.77
2019-05-18T08:08:50.892Z,98083.13
2019-05-18T08:10:58.890Z,98083.46
2019-05-18T08:13:08.342Z,98081.98
2019-05-18T08:15:16.976Z,98081.52
2019-05-18T08:17:25.260Z,98079.42
2019-05-18T08:19:34.240Z,98075.68
2019-05-18T08:21:52.627Z,98076.98
2019-05-18T08:23:52.397Z,98076.02
2019-05-18T08:26:00.275Z,98074.88
2019-05-18T08:28:09.276Z,98077.50
2019-05-18T08:30:17.220Z,98080.59
2019-05-18T08:32:25.141Z,98074.89
2019-05-18T08:34:33.141Z,98071.79
2019-05-18T08:36:42.465Z,98081.23
2019-05-18T08:38:50.679Z,98080.28
2019-05-18T08:40:58.858Z,98079.94
2019-05-18T08:43:07.242Z,98075.20
2019-05-18T08:45:17.047Z,98069.17
2019-05-18T08:47:25.909Z,98070.97
2019-05-18T08:49:33.979Z,98068.53
2019-05-18T08:51:42.875Z,98063.84
2019-05-18T08:53:51.248Z,98063.17
2019-05-18T08:56:00.107Z,98063.66
2019-05-18T08:58:08.646Z,98061.69
2019-05-18T09:00:17.200Z,98060.84
2019-05-18T09:02:25.484Z,98053.50
2019-05-18T09:04:33.843Z,98060.67
2019-05-18T09:06:43.117Z,98062.80
2019-05-18T09:08:51.099Z,98057.24
2019-05-18T09:10:59.178Z,98063.42
2019-05-18T09:13:07.064Z,98058.37
2019-05-18T09:15:15.972Z,98060.64
2019-05-18T09:17:23.958Z,98050.86
2019-05-18T09:19:32.327Z,98046.29
2019-05-18T09:21:40.510Z,98047.11
2019-05-18T09:23:51.808Z,98041.07
2019-05-18T09:26:00.110Z,98036.02
2019-05-18T09:28:08.399Z,98045.30
2019-05-18T09:30:17.212Z,98045.16
2019-05-18T09:32:25.091Z,98044.30
2019-05-18T09:34:32.983Z,98046.91
2019-05-18T09:36:42.484Z,98044.63
2019-05-18T09:38:51.359Z,98045.10
2019-05-18T09:40:59.367Z,98045.23
2019-05-18T09:43:07.410Z,98043.27
2019-05-18T09:45:17.827Z,98043.88
2019-05-18T09:47:25.603Z,98040.62
2019-05-18T09:49:33.777Z,98037.74
2019-05-18T09:51:43.367Z,98042.75
2019-05-18T09:53:52.239Z,98047.80
2019-05-18T09:56:00.300Z,98049.27
2019-05-18T09:58:08.710Z,98050.92
2019-05-18T10:00:18.722Z,98056.81
2019-05-18T10:02:27.001Z,98048.31
2019-05-18T10:08:49.210Z,98050.58
2019-05-18T10:10:57.191Z,98048.09
2019-05-18T10:13:05.218Z,98045.78
2019-05-18T10:15:13.802Z,98046.25
2019-05-18T10:17:22.614Z,98048.25
2019-05-18T10:19:30.549Z,98040.55
2019-05-18T10:21:38.708Z,98039.72
2019-05-18T10:23:46.765Z,98040.02
2019-05-18T10:25:55.024Z,98039.19
2019-05-18T10:28:03.454Z,98036.92
2019-05-18T10:30:12.404Z,98029.92
2019-05-18T10:32:20.785Z,98023.86
2019-05-18T10:34:29.720Z,98035.38
2019-05-18T10:36:37.708Z,98031.47
2019-05-18T10:38:45.681Z,98036.17
2019-05-18T10:40:53.587Z,98028.98
2019-05-18T10:43:02.042Z,98034.85
2019-05-18T10:45:11.232Z,98027.84
2019-05-18T10:47:19.505Z,98027.36
2019-05-18T10:49:27.744Z,98028.32
2019-05-18T10:51:35.618Z,98024.28
2019-05-18T10:53:43.762Z,98025.53
2019-05-18T10:55:51.739Z,98012.59
2019-05-18T10:57:59.792Z,98013.24
2019-05-18T11:00:12.348Z,98019.30
2019-05-18T11:02:20.411Z,98021.38
2019-05-18T11:04:28.386Z,98014.71
2019-05-18T11:06:39.169Z,98009.61
2019-05-18T11:08:47.208Z,98009.78
2019-05-18T11:10:56.163Z,98014.47
2019-05-18T11:13:04.343Z,98010.52
2019-05-18T11:15:13.989Z,98001.66
2019-05-18T11:17:22.405Z,97991.39
2019-05-18T11:19:30.337Z,98004.59
2019-05-18T11:21:38.218Z,97997.92
2019-05-18T11:23:48.129Z,97987.63
2019-05-18T11:25:56.174Z,97989.75
2019-05-18T11:28:04.441Z,97984.70
2019-05-18T11:30:14.723Z,97987.09
2019-05-18T11:32:23.003Z,97981.00
2019-05-18T11:34:30.890Z,97985.36
2019-05-18T11:36:38.766Z,97982.47
2019-05-18T11:38:46.679Z,97990.15
2019-05-18T11:40:54.730Z,97986.28
2019-05-18T11:43:04.398Z,97982.28
2019-05-18T11:45:16.834Z,97972.59
2019-05-18T11:47:27.901Z,97987.79
2019-05-18T11:49:37.102Z,97978.91
2019-05-18T11:51:45.600Z,97982.23
2019-05-18T11:53:58.411Z,97984.97
2019-05-18T11:56:03.273Z,97980.02
2019-05-18T11:58:11.345Z,97978.34
2019-05-18T12:00:19.826Z,97984.02
2019-05-18T12:02:27.710Z,97983.57
2019-05-18T12:04:36.603Z,97976.06
2019-05-18T12:06:44.577Z,97979.41
2019-05-18T12:08:52.451Z,97977.95
2019-05-18T12:11:00.435Z,97981.80
2019-05-18T12:13:08.780Z,97972.98
2019-05-18T12:15:19.252Z,97982.51
2019-05-18T12:17:27.153Z,97978.41
2019-05-18T12:19:36.300Z,97973.95
2019-05-18T12:21:44.284Z,97983.14
2019-05-18T12:23:52.294Z,97979.65
2019-05-18T12:26:01.169Z,97981.37
2019-05-18T12:28:09.433Z,97978.81
2019-05-18T12:30:20.342Z,97976.28
2019-05-18T12:32:30.067Z,97975.42
2019-05-18T12:34:38.364Z,97970.03
2019-05-18T12:36:46.778Z,97969.52
2019-05-18T12:38:56.747Z,97972.87
2019-05-18T12:41:07.517Z,97968.66
2019-05-18T12:43:15.445Z,97973.42
2019-05-18T12:45:24.670Z,97970.47
2019-05-18T12:47:32.619Z,97975.88
2019-05-18T12:49:40.700Z,97969.12
2019-05-18T12:51:49.652Z,97964.94
2019-05-18T12:53:57.782Z,97982.31
2019-05-18T12:56:05.838Z,97969.40
2019-05-18T12:58:15.093Z,97964.32
2019-05-18T13:00:24.482Z,97962.83
2019-05-18T13:02:32.710Z,97965.91
2019-05-18T13:04:41.939Z,97960.39
2019-05-18T13:06:50.360Z,97956.98
2019-05-18T13:08:58.440Z,97956.66
2019-05-18T13:11:07.115Z,97953.85
2019-05-18T13:13:15.322Z,97947.73
2019-05-18T13:15:23.919Z,97943.25
2019-05-18T13:17:33.209Z,97941.23
2019-05-18T13:19:41.159Z,97937.58
2019-05-18T13:21:49.197Z,97937.20
2019-05-18T13:23:57.179Z,97928.53
2019-05-18T13:26:05.526Z,97924.98
2019-05-18T13:28:13.499Z,97920.68
2019-05-18T13:30:23.968Z,97919.52
2019-05-18T13:32:31.829Z,97917.72
2019-05-18T13:34:39.745Z,97912.56
2019-05-18T13:36:48.100Z,97908.84
2019-05-18T13:38:55.993Z,97908.41
2019-05-18T13:41:04.538Z,97906.42
2019-05-18T13:43:12.514Z,97904.69
2019-05-18T13:45:21.029Z,97903.44
2019-05-18T13:47:32.040Z,97895.19
2019-05-18T13:49:40.322Z,97897.77
2019-05-18T13:51:49.194Z,97901.31
2019-05-18T13:53:57.138Z,97899.42
2019-05-18T13:56:05.431Z,97901.06
2019-05-18T13:58:13.414Z,97897.92
2019-05-18T14:00:23.562Z,97897.38
2019-05-18T14:02:31.545Z,97891.32
2019-05-18T14:04:39.615Z,97894.62
2019-05-18T14:06:47.536Z,97892.25
2019-05-18T14:08:55.500Z,97895.44
2019-05-18T14:11:03.971Z,97891.95
2019-05-18T14:13:12.368Z,97890.88
2019-05-18T14:15:23.025Z,97888.94
2019-05-18T14:17:30.212Z,97887.67
2019-05-18T14:19:38.124Z,97880.73
2019-05-18T14:21:46.235Z,97890.08
2019-05-18T14:23:55.492Z,97892.12
2019-05-18T14:26:03.476Z,97891.80
2019-05-18T14:28:11.429Z,97890.77
2019-05-18T14:30:20.657Z,97894.88
2019-05-18T14:32:28.567Z,97897.66
2019-05-18T14:34:36.518Z,97897.70
2019-05-18T14:36:44.557Z,97900.81
2019-05-18T14:38:56.713Z,97894.75
2019-05-18T14:41:02.644Z,97904.52
2019-05-18T14:43:10.667Z,97901.77
2019-05-18T14:45:19.466Z,97898.22
2019-05-18T14:47:27.682Z,97897.30
2019-05-18T14:49:35.999Z,97890.52
2019-05-18T14:51:44.248Z,97883.66
2019-05-18T14:53:52.632Z,97875.36
2019-05-18T14:56:00.808Z,97880.67
2019-05-18T14:58:09.618Z,97879.88
2019-05-18T15:00:20.686Z,97880.84
2019-05-18T15:02:28.659Z,97883.36
2019-05-18T15:04:37.592Z,97877.45
2019-05-18T15:06:45.484Z,97875.16
2019-05-18T15:08:54.368Z,97876.33
2019-05-18T15:11:02.809Z,97875.49
2019-05-18T15:13:10.846Z,97875.41
2019-05-18T15:15:19.046Z,97871.55
2019-05-18T15:17:26.973Z,97866.72
2019-05-18T15:19:35.129Z,97861.72
2019-05-18T15:21:43.124Z,97864.46
2019-05-18T15:23:51.069Z,97864.25
2019-05-18T15:25:58.939Z,97870.05
2019-05-18T15:28:07.101Z,97870.40
2019-05-18T15:30:17.209Z,97878.10
2019-05-18T15:32:25.629Z,97878.44
2019-05-18T15:34:33.592Z,97873.55
2019-05-18T15:36:41.610Z,97869.88
2019-05-18T15:38:50.179Z,97868.80
2019-05-18T15:40:58.436Z,97864.23
2019-05-18T15:43:06.460Z,97864.02
2019-05-18T15:45:14.722Z,97851.05
2019-05-18T15:47:22.853Z,97854.48
2019-05-18T15:49:30.763Z,97856.95
2019-05-18T15:51:38.654Z,97851.00
2019-05-18T15:53:46.644Z,97854.25
2019-05-18T15:56:05.236Z,97851.11
2019-05-18T15:58:04.314Z,97853.65
2019-05-18T16:00:12.829Z,97854.39
2019-05-18T16:02:21.286Z,97855.47
2019-05-18T16:04:29.490Z,97853.86
2019-05-18T16:06:38.528Z,97854.60
2019-05-18T16:08:47.423Z,97848.88
2019-05-18T16:10:57.361Z,97848.36
2019-05-18T16:13:05.366Z,97841.81
2019-05-18T16:15:14.737Z,97841.56
2019-05-18T16:17:38.096Z,97839.57
2019-05-18T16:19:32.274Z,97834.03
2019-05-18T16:21:40.353Z,97835.88
2019-05-18T16:23:48.342Z,97846.73
2019-05-18T16:25:56.222Z,97848.22
2019-05-18T16:28:04.206Z,97851.03
2019-05-18T16:30:12.754Z,97852.19
2019-05-18T16:32:21.049Z,97850.63
2019-05-18T16:34:28.987Z,97856.95
2019-05-18T16:36:36.886Z,97859.45
2019-05-18T16:38:44.885Z,97873.06
2019-05-18T16:40:52.896Z,97871.45
2019-05-18T16:43:01.767Z,97877.33
2019-05-18T16:45:10.730Z,97875.90
2019-05-18T16:47:19.902Z,97872.65
2019-05-18T16:49:27.886Z,97871.38
2019-05-18T16:51:35.880Z,97869.13
2019-05-18T16:53:48.141Z,97868.38
2019-05-18T16:55:54.687Z,97868.23
2019-05-18T16:58:02.902Z,97861.23
2019-05-18T17:00:16.231Z,97865.98
2019-05-18T17:02:31.674Z,97861.91
2019-05-18T17:04:34.484Z,97863.55
2019-05-18T17:06:42.498Z,97866.95
2019-05-18T17:08:50.481Z,97865.11
2019-05-18T17:10:58.478Z,97866.12
2019-05-18T17:13:06.870Z,97862.20
2019-05-18T17:15:16.876Z,97867.09
2019-05-18T17:17:25.133Z,97863.05
2019-05-18T17:19:33.051Z,97859.13
2019-05-18T17:21:41.052Z,97857.67
2019-05-18T17:23:49.025Z,97860.68
2019-05-18T17:25:56.967Z,97864.97
2019-05-18T17:28:04.997Z,97868.43
2019-05-18T17:30:13.367Z,97870.11
2019-05-18T17:32:21.289Z,97865.27
2019-05-18T17:34:29.249Z,97863.66
2019-05-18T17:36:38.213Z,97861.34
2019-05-18T17:38:46.269Z,97857.97
2019-05-18T17:40:54.496Z,97855.05
2019-05-18T17:43:02.499Z,97864.41
2019-05-18T17:45:11.900Z,97859.20
2019-05-18T17:47:19.803Z,97853.67
2019-05-18T17:49:28.072Z,97858.56
2019-05-18T17:51:36.387Z,97855.01
2019-05-18T17:53:44.824Z,97851.94
2019-05-18T17:55:52.820Z,97852.94
2019-05-18T17:58:00.835Z,97854.37
2019-05-18T18:00:11.173Z,97852.59
2019-05-18T18:02:19.063Z,97852.75
2019-05-18T18:04:27.095Z,97855.01
2019-05-18T18:06:35.460Z,97851.75
2019-05-18T18:08:43.736Z,97847.25
2019-05-18T18:10:51.723Z,97841.48
2019-05-18T18:12:59.926Z,97844.96
2019-05-18T18:15:09.298Z,97846.83
2019-05-18T18:17:17.905Z,97850.65
2019-05-18T18:19:25.893Z,97849.74
2019-05-18T18:21:33.806Z,97847.69
2019-05-18T18:23:41.719Z,97849.41
2019-05-18T18:25:49.678Z,97842.64
2019-05-18T18:27:57.612Z,97846.80
2019-05-18T18:30:12.104Z,97847.53
2019-05-18T18:32:20.471Z,97847.53
2019-05-18T18:34:28.705Z,97851.60
2019-05-18T18:36:36.636Z,97848.03
2019-05-18T18:38:45.072Z,97854.23
2019-05-18T18:40:54.316Z,97849.86
2019-05-18T18:43:02.333Z,97848.89
2019-05-18T18:45:11.283Z,97842.86
2019-05-18T18:47:19.236Z,97844.63
2019-05-18T18:49:27.290Z,97841.22
2019-05-18T18:51:35.332Z,97841.22
2019-05-18T18:53:44.192Z,97841.20
2019-05-18T18:55:53.107Z,97844.11
2019-05-18T18:58:02.491Z,97849.45
2019-05-18T19:00:12.789Z,97851.55
2019-05-18T19:02:20.900Z,97856.23
2019-05-18T19:04:28.894Z,97856.20
2019-05-18T19:06:36.954Z,97850.30
2019-05-18T19:08:45.116Z,97856.55
2019-05-18T19:10:53.073Z,97859.09
2019-05-18T19:13:00.984Z,97850.53
2019-05-18T19:15:10.613Z,97851.92
2019-05-18T19:17:18.755Z,97854.95
2019-05-18T19:19:26.958Z,97862.93
2019-05-18T19:21:35.093Z,97857.02
2019-05-18T19:23:43.077Z,97853.08
2019-05-18T19:25:51.959Z,97847.48
2019-05-18T19:28:00.098Z,97859.22
2019-05-18T19:30:10.334Z,97856.53
2019-05-18T19:32:18.280Z,97847.07
2019-05-18T19:34:26.404Z,97846.55
2019-05-18T19:36:34.322Z,97848.94
2019-05-18T19:38:42.677Z,97846.50
2019-05-18T19:40:50.711Z,97849.80
2019-05-18T19:42:59.650Z,97850.13
2019-05-18T19:45:11.441Z,97851.50
2019-05-18T19:47:19.392Z,97848.08
2019-05-18T19:49:27.393Z,97846.33
2019-05-18T19:51:36.430Z,97850.22
2019-05-18T19:53:44.479Z,97847.30
2019-05-18T19:55:52.375Z,97848.60
2019-05-18T19:58:08.515Z,97840.52
2019-05-18T20:00:12.997Z,97853.84
2019-05-18T20:02:20.957Z,97845.26
2019-05-18T20:04:29.140Z,97840.67
2019-05-18T20:06:37.460Z,97840.67
2019-05-18T20:08:45.553Z,97849.30
2019-05-18T20:10:53.952Z,97846.85
2019-05-18T20:13:02.049Z,97843.89
2019-05-18T20:15:10.788Z,97846.02
2019-05-18T20:17:18.709Z,97853.11
2019-05-18T20:19:38.553Z,97851.05
2019-05-18T20:21:37.402Z,97846.63
2019-05-18T20:23:45.306Z,97846.78
2019-05-18T20:25:53.248Z,97850.52
2019-05-18T20:28:01.235Z,97849.22
2019-05-18T20:30:11.827Z,97845.48
2019-05-18T20:32:19.833Z,97845.34
2019-05-18T20:34:27.889Z,97850.05
2019-05-18T20:36:36.054Z,97846.31
2019-05-18T20:38:44.576Z,97842.55
2019-05-18T20:40:52.559Z,97843.72
2019-05-18T20:43:00.562Z,97834.27
2019-05-18T20:45:09.590Z,97837.86
2019-05-18T20:47:17.560Z,97836.56
2019-05-18T20:49:25.548Z,97840.30
2019-05-18T20:51:33.490Z,97836.89
2019-05-18T20:53:41.469Z,97840.61
2019-05-18T20:55:49.534Z,97837.34
2019-05-18T20:57:57.544Z,97835.84
2019-05-18T21:00:06.550Z,97834.31
2019-05-18T21:02:16.148Z,97832.34
2019-05-18T21:04:24.171Z,97839.75
2019-05-18T21:06:32.070Z,97831.27
2019-05-18T21:08:40.192Z,97825.36
2019-05-18T21:10:49.211Z,97830.02
2019-05-18T21:12:57.108Z,97829.80
2019-05-18T21:15:08.236Z,97831.72
2019-05-18T21:17:16.704Z,97833.84
2019-05-18T21:19:24.699Z,97829.28
2019-05-18T21:21:32.599Z,97827.92
2019-05-18T21:23:40.584Z,97824.95
2019-05-18T21:25:48.478Z,97820.48
2019-05-18T21:27:56.770Z,97814.77
2019-05-18T21:30:06.693Z,97825.27
2019-05-18T21:32:14.595Z,97825.71
2019-05-18T21:34:22.482Z,97830.54
2019-05-18T21:36:30.399Z,97824.73
2019-05-18T21:38:38.292Z,97831.83
2019-05-18T21:40:46.328Z,97825.24
2019-05-18T21:42:55.270Z,97829.45
2019-05-18T21:45:03.442Z,97826.86
2019-05-18T21:47:11.741Z,97824.42
2019-05-18T21:49:19.889Z,97825.03
2019-05-18T21:51:27.947Z,97820.68
2019-05-18T21:53:35.936Z,97820.00
2019-05-18T21:55:44.191Z,97829.89
2019-05-18T21:57:52.330Z,97826.80
2019-05-18T22:00:00.736Z,97823.29
2019-05-18T22:02:09.867Z,97833.03
2019-05-18T22:04:18.060Z,97837.35
2019-05-18T22:06:26.063Z,97841.10
2019-05-18T22:08:33.994Z,97852.65
2019-05-18T22:10:41.882Z,97857.36
2019-05-18T22:12:49.883Z,97856.28
2019-05-18T22:14:58.032Z,97856.99
2019-05-18T22:17:06.419Z,97855.62
2019-05-18T22:19:14.313Z,97854.26
2019-05-18T22:21:23.257Z,97853.58
2019-05-18T22:23:31.256Z,97851.45
2019-05-18T22:25:39.167Z,97854.26
2019-05-18T22:27:47.357Z,97857.53
2019-05-18T22:29:56.721Z,97852.00
2019-05-18T22:32:04.677Z,97856.73
2019-05-18T22:34:13.004Z,97849.41
2019-05-18T22:36:21.028Z,97854.15
2019-05-18T22:38:29.384Z,97848.12
2019-05-18T22:40:37.454Z,97852.97
2019-05-18T22:42:45.823Z,97853.58
2019-05-18T22:44:53.713Z,97845.45
2019-05-18T22:47:01.746Z,97837.02
2019-05-18T22:49:09.722Z,97839.56
2019-05-18T22:51:19.342Z,97840.17
2019-05-18T22:53:27.368Z,97842.21
2019-05-18T22:55:35.766Z,97842.82
2019-05-18T22:57:44.049Z,97838.08
2019-05-18T22:59:53.012Z,97835.27
2019-05-18T23:02:00.977Z,97832.69
2019-05-18T23:04:09.479Z,97828.34
2019-05-18T23:06:17.423Z,97833.65
2019-05-18T23:08:25.455Z,97826.58
2019-05-18T23:10:33.444Z,97825.06
2019-05-18T23:12:42.472Z,97822.84
2019-05-18T23:14:50.397Z,97827.38
2019-05-18T23:16:58.287Z,97830.31
2019-05-18T23:19:06.707Z,97821.13
2019-05-18T23:21:14.600Z,97824.03
2019-05-18T23:23:22.686Z,97826.02
2019-05-18T23:25:30.712Z,97821.66
2019-05-18T23:27:38.598Z,97822.34
2019-05-18T23:29:46.492Z,97816.49
2019-05-18T23:31:54.497Z,97813.69
2019-05-18T23:34:02.465Z,97819.00
2019-05-18T23:36:10.821Z,97815.27
2019-05-18T23:38:18.841Z,97817.78
2019-05-18T23:40:26.820Z,97822.84
2019-05-18T23:42:34.778Z,97824.59
2019-05-18T23:44:42.903Z,97828.62
2019-05-18T23:46:51.071Z,97834.59
2019-05-18T23:49:10.073Z,97833.37
2019-05-18T23:51:09.633Z,97833.37
2019-05-18T23:53:17.528Z,97832.69
2019-05-18T23:55:25.656Z,97831.39
2019-05-18T23:57:34.762Z,97830.31
2019-05-18T23:59:42.637Z,97823.84
